< < Back
Terminal Aerodrome Forecast


Current Version              Previous Versions:   1  2  3  4  5  6  7  8  9  

Terminal Aerodrome Forecast

653
FTUS42 KCHS 301700
TAFSAV
TAF
KSAV 301735Z 3018/0118 35007KT P6SM SCT025
     FM010000 00000KT P6SM SKC
     FM010800 00000KT 4SM BR FEW250
     FM011300 VRB03KT P6SM SKC=



Latest METAR

763
SAUS80 KWBC 011200 RRI
MTRSAV
METAR KSAV 011153Z 00000KT 10SM FEW250 19/17 A2996 RMK AO2 SLP145
T01890172 10200 20178 53017


USA.gov is the U.S. government's official web portal to all federal, state and local government web resources and services.